Time;durP1;ratioP1;P1;durP2;ratioP2;P2;SDS_P1;SDS_P2;PMS_P1;PMS_P2;Temp;Humidity;BMP_temperature;BMP_pressure;BME280_temperature;BME280_humidity;BME280_pressure;Samples;Min_cycle;Max_cycle;Signal;HPM_P1;HPM_P2
2022/08/19 00:01:30;;;;;;;11.45;10.27;;;;;;;24.16;100.00;152114.28;5092848;28;20192;-61
2022/08/19 00:03:57;;;;;;;10.50;9.82;;;;;;;24.26;100.00;152138.56;5092858;28;20659;-61
2022/08/19 00:06:24;;;;;;;10.93;9.95;;;;;;;24.30;100.00;152150.06;5092752;28;20499;-60
2022/08/19 00:08:52;;;;;;;13.13;10.68;;;;;;;24.38;100.00;152170.47;5092655;28;20200;-61
2022/08/19 00:11:20;;;;;;;13.30;10.88;;;;;;;24.39;100.00;152173.03;5092614;28;20184;-60
2022/08/19 00:13:48;;;;;;;11.18;10.18;;;;;;;24.26;100.00;152138.56;5049991;28;1206468;-61
2022/08/19 00:16:15;;;;;;;11.35;10.30;;;;;;;24.08;100.00;152093.81;5093616;28;20563;-61
2022/08/19 00:18:42;;;;;;;11.38;10.52;;;;;;;24.01;100.00;152077.25;5093554;28;20619;-60
2022/08/19 00:21:09;;;;;;;10.65;9.63;;;;;;;24.03;100.00;152082.31;5075680;28;20306;-60
2022/08/19 00:23:36;;;;;;;11.10;10.18;;;;;;;23.98;100.00;152069.53;5093176;28;20328;-60
2022/08/19 00:26:05;;;;;;;11.40;10.55;;;;;;;23.98;100.00;152069.53;5093056;28;20184;-60
2022/08/19 00:28:32;;;;;;;10.57;9.93;;;;;;;23.92;100.00;152052.97;5093288;28;20298;-60
2022/08/19 00:30:59;;;;;;;10.35;9.85;;;;;;;23.84;100.00;152033.84;5093398;28;20627;-60
2022/08/19 00:33:26;;;;;;;11.00;10.10;;;;;;;23.71;100.00;147791.47;5092951;28;20180;-61
2022/08/19 00:35:53;;;;;;;10.30;9.70;;;;;;;23.62;100.00;139383.88;5092916;28;20184;-61
2022/08/19 00:38:22;;;;;;;12.82;10.45;;;;;;;23.53;100.00;131218.25;5092826;28;20180;-60
2022/08/19 00:40:50;;;;;;;10.68;9.88;;;;;;;23.53;100.00;132574.56;5092832;28;20218;-61
2022/08/19 00:43:22;;;;;;;9.90;9.25;;;;;;;23.44;100.00;127810.34;5092163;28;20275;-60
2022/08/19 00:45:49;;;;;;;10.63;9.80;;;;;;;23.50;100.00;131211.63;5093006;28;20191;-60
2022/08/19 00:48:17;;;;;;;9.95;9.45;;;;;;;23.43;100.00;127807.06;5092784;28;20241;-61
2022/08/19 00:50:46;;;;;;;10.52;10.13;;;;;;;23.52;100.00;137323.47;5092868;28;20184;-61
2022/08/19 00:53:17;;;;;;;9.77;9.38;;;;;;;23.64;100.00;146468.81;5092536;28;20202;-61
2022/08/19 00:55:47;;;;;;;9.93;9.25;;;;;;;23.61;100.00;151976.38;5092520;28;20184;-60
2022/08/19 00:58:17;;;;;;;10.73;9.68;;;;;;;23.80;100.00;152023.63;5092854;28;20294;-60
2022/08/19 01:00:45;;;;;;;10.15;9.55;;;;;;;23.73;100.00;152004.44;5092331;28;20188;-61
2022/08/19 01:03:15;;;;;;;10.63;10.02;;;;;;;23.78;100.00;152018.50;5092362;28;20298;-60
2022/08/19 01:05:44;;;;;;;10.60;9.93;;;;;;;23.79;100.00;152021.06;5092591;28;20645;-61
2022/08/19 01:08:12;;;;;;;10.88;10.18;;;;;;;23.56;100.00;151962.31;5092231;28;20180;-60
2022/08/19 01:10:44;;;;;;;10.55;9.70;;;;;;;23.68;100.00;151813.03;5092238;28;20188;-61
2022/08/19 01:13:12;;;;;;;10.45;9.80;;;;;;;23.58;100.00;151170.94;5092138;28;20190;-60
2022/08/19 01:15:44;;;;;;;10.52;9.90;;;;;;;23.61;100.00;147589.56;5092064;28;20270;-60
2022/08/19 01:18:15;;;;;;;10.23;9.73;;;;;;;23.28;100.00;130823.09;5092361;28;20631;-60
2022/08/19 01:20:43;;;;;;;10.55;10.05;;;;;;;23.21;100.00;118632.91;5092551;28;20198;-60
2022/08/19 01:23:12;;;;;;;11.10;10.25;;;;;;;23.24;100.00;125060.16;5092361;28;20635;-61
2022/08/19 01:25:44;;;;;;;10.95;10.07;;;;;;;23.36;100.00;126100.53;5092140;28;20202;-60
2022/08/19 01:28:17;;;;;;;10.57;10.18;;;;;;;23.41;100.00;130513.91;5092222;28;20539;-61
2022/08/19 01:30:45;;;;;;;11.15;10.40;;;;;;;23.40;100.00;129832.91;5092157;28;20184;-60
2022/08/19 01:33:13;;;;;;;10.98;10.38;;;;;;;23.39;100.00;135596.22;5091880;28;20187;-60
2022/08/19 01:35:39;;;;;;;11.30;10.40;;;;;;;23.25;100.00;133528.13;5091756;28;20278;-61
2022/08/19 01:38:10;;;;;;;10.52;9.75;;;;;;;23.12;100.00;125035.97;5092116;28;20610;-60
2022/08/19 01:40:42;;;;;;;10.98;10.10;;;;;;;23.28;100.00;122024.22;5092097;28;20195;-60
2022/08/19 01:43:09;;;;;;;12.63;11.70;;;;;;;22.99;100.00;114204.03;5092010;28;20188;-60
2022/08/19 01:45:39;;;;;;;11.90;10.85;;;;;;;23.18;100.00;122343.69;5092028;28;20554;-61
2022/08/19 01:48:08;;;;;;;10.98;10.25;;;;;;;23.21;100.00;118633.88;5091689;28;20184;-61
2022/08/19 01:50:36;;;;;;;11.77;10.73;;;;;;;23.26;100.00;116953.97;5091971;28;20203;-61
2022/08/19 01:53:05;;;;;;;12.73;10.70;;;;;;;23.32;100.00;126092.06;5091920;28;20627;-61
2022/08/19 01:55:33;;;;;;;11.52;10.63;;;;;;;23.28;100.00;123376.47;5091637;28;20191;-60
2022/08/19 01:58:05;;;;;;;11.88;10.85;;;;;;;23.36;100.00;128469.28;5091569;28;20194;-60
2022/08/19 02:00:33;;;;;;;12.50;11.20;;;;;;;23.22;100.00;121338.06;5091711;28;20180;-60
2022/08/19 02:03:00;;;;;;;11.05;10.45;;;;;;;23.24;100.00;116276.09;5091442;28;20198;-61
2022/08/19 02:05:29;;;;;;;12.23;11.18;;;;;;;23.30;100.00;123380.63;5091790;28;20180;-60
2022/08/19 02:07:56;;;;;;;11.65;10.75;;;;;;;23.47;100.00;128832.91;5091469;28;20184;-60
2022/08/19 02:10:23;;;;;;;11.38;10.55;;;;;;;23.40;100.00;132883.53;5091568;28;20200;-61
2022/08/19 02:12:50;;;;;;;12.05;11.18;;;;;;;23.33;100.00;128462.81;5091799;28;20630;-61
2022/08/19 02:15:20;;;;;;;11.90;10.75;;;;;;;23.49;100.00;122405.50;5091295;28;20227;-60
2022/08/19 02:17:47;;;;;;;12.18;11.05;;;;;;;23.57;100.00;125128.56;5091465;28;20188;-60
2022/08/19 02:20:14;;;;;;;10.55;10.05;;;;;;;23.53;100.00;132235.44;5091480;28;20202;-60
2022/08/19 02:22:42;;;;;;;11.70;10.93;;;;;;;23.61;100.00;139381.53;5091576;28;20210;-61
2022/08/19 02:25:10;;;;;;;11.65;10.93;;;;;;;23.67;100.00;141887.09;5091442;28;20720;-60
2022/08/19 02:27:37;;;;;;;11.48;10.65;;;;;;;23.50;100.00;141150.69;5091580;28;20543;-61
2022/08/19 02:30:06;;;;;;;11.70;10.73;;;;;;;23.63;100.00;150685.53;5091443;28;20313;-60
2022/08/19 02:32:34;;;;;;;12.35;11.00;;;;;;;23.64;100.00;150823.88;5091595;28;20578;-61
2022/08/19 02:35:01;;;;;;;10.60;10.15;;;;;;;23.49;100.00;143479.41;5091138;28;20185;-60
2022/08/19 02:40:12;;;;;;;11.50;10.75;;;;;;;23.49;100.00;134260.53;5047204;28;20298;-61
2022/08/19 02:42:40;;;;;;;11.18;10.40;;;;;;;23.25;100.00;140819.13;5091173;28;20206;-59
2022/08/19 02:45:08;;;;;;;11.02;10.52;;;;;;;23.51;100.00;144893.03;5090991;28;20188;-60
2022/08/19 02:47:36;;;;;;;11.20;10.45;;;;;;;23.44;100.00;151933.00;5091042;28;20185;-60
2022/08/19 02:50:05;;;;;;;11.73;10.75;;;;;;;23.52;100.00;151952.13;5091455;28;20224;-60
2022/08/19 02:52:33;;;;;;;11.20;10.27;;;;;;;23.56;100.00;151962.31;5091368;28;20613;-60
2022/08/19 02:55:00;;;;;;;10.63;9.85;;;;;;;23.41;100.00;151924.00;5091180;28;20673;-60
2022/08/19 02:57:28;;;;;;;10.95;9.80;;;;;;;23.55;100.00;151959.81;5090910;28;20181;-60
2022/08/19 02:59:55;;;;;;;11.98;11.05;;;;;;;23.54;100.00;151957.25;5090936;28;20276;-60
2022/08/19 03:02:22;;;;;;;11.43;10.45;;;;;;;23.64;100.00;151982.75;5091282;28;20196;-60
2022/08/19 03:04:50;;;;;;;11.18;10.50;;;;;;;23.60;100.00;151973.81;5090897;28;20643;-60
2022/08/19 03:07:18;;;;;;;10.98;10.10;;;;;;;23.45;100.00;151934.28;5092953;28;20188;-60
2022/08/19 03:09:45;;;;;;;10.77;10.18;;;;;;;23.37;100.00;151915.09;5094546;28;20200;-60
2022/08/19 03:12:12;;;;;;;10.55;9.80;;;;;;;23.65;100.00;151986.59;5094599;28;20181;-60
2022/08/19 03:14:39;;;;;;;10.77;10.18;;;;;;;23.64;100.00;151982.75;5094345;28;20231;-60
2022/08/19 03:17:06;;;;;;;11.43;10.43;;;;;;;23.65;100.00;151986.59;5094537;28;20659;-61
2022/08/19 03:19:33;;;;;;;11.30;10.27;;;;;;;23.63;100.00;151980.22;5094731;28;20557;-61
2022/08/19 03:22:02;;;;;;;10.90;10.40;;;;;;;23.63;100.00;151981.50;5094623;28;20647;-60
2022/08/19 03:24:30;;;;;;;10.45;9.80;;;;;;;23.58;100.00;151968.75;5076448;28;20184;-60
2022/08/19 03:26:58;;;;;;;11.00;10.20;;;;;;;23.56;100.00;151963.63;5094289;28;20215;-61
2022/08/19 03:29:26;;;;;;;10.82;10.32;;;;;;;23.64;100.00;151982.75;5094518;28;20230;-61
2022/08/19 03:31:54;;;;;;;11.65;10.32;;;;;;;23.68;100.00;151994.22;5094124;28;20188;-60
2022/08/19 03:34:26;;;;;;;11.35;10.38;;;;;;;23.69;100.00;151995.50;5094138;28;20194;-61
2022/08/19 03:36:54;;;;;;;11.63;10.57;;;;;;;23.65;100.00;151986.59;5094042;28;20190;-61
2022/08/19 03:39:22;;;;;;;10.55;10.10;;;;;;;23.66;100.00;151989.16;5094006;28;20192;-63
2022/08/19 03:41:51;;;;;;;10.93;10.32;;;;;;;23.80;100.00;152022.34;5093995;28;20286;-60
2022/08/19 03:44:21;;;;;;;11.27;10.65;;;;;;;23.73;100.00;152005.72;5093854;28;20245;-61
2022/08/19 03:46:51;;;;;;;12.43;10.65;;;;;;;23.82;100.00;152028.69;5093861;28;20184;-60
2022/08/19 03:49:19;;;;;;;10.18;9.77;;;;;;;23.91;100.00;152050.41;5094077;28;20211;-60
2022/08/19 03:51:47;;;;;;;11.95;10.98;;;;;;;23.88;100.00;152042.75;5093712;28;20188;-61
2022/08/19 03:54:16;;;;;;;10.93;10.30;;;;;;;24.13;100.00;152106.59;5093639;28;20195;-61
2022/08/19 03:56:45;;;;;;;11.20;10.23;;;;;;;24.31;100.00;152151.34;5093724;28;20188;-61
2022/08/19 03:59:15;;;;;;;11.18;10.48;;;;;;;24.43;100.00;152181.97;5093613;28;20548;-61
2022/08/19 04:01:42;;;;;;;10.60;9.95;;;;;;;24.58;100.00;152220.25;5093607;28;20188;-61
2022/08/19 04:04:09;;;;;;;11.50;10.77;;;;;;;24.79;100.00;152273.91;5093612;28;20188;-61
2022/08/19 04:06:38;;;;;;;10.35;9.85;;;;;;;24.75;100.00;152263.69;5093586;28;20188;-61
2022/08/19 04:09:08;;;;;;;11.10;10.40;;;;;;;25.10;100.00;152350.59;5093425;28;20188;-60
2022/08/19 04:11:39;;;;;;;9.75;9.05;;;;;;;25.27;100.00;152395.31;5093702;28;20554;-61
2022/08/19 04:14:07;;;;;;;10.90;9.70;;;;;;;25.41;100.00;152431.13;5093374;28;20654;-61
2022/08/19 04:16:34;;;;;;;10.20;9.55;;;;;;;25.64;100.00;152487.34;5093261;28;20188;-60
2022/08/19 04:19:03;;;;;;;10.38;9.38;;;;;;;25.83;100.00;152535.94;5074062;28;20199;-62
2022/08/19 04:21:30;;;;;;;11.77;10.68;;;;;;;25.98;100.00;152574.28;5093638;28;20184;-61
2022/08/19 04:23:58;;;;;;;11.07;10.20;;;;;;;26.24;100.00;152640.81;5093499;28;20645;-60
2022/08/19 04:26:28;;;;;;;14.13;12.73;;;;;;;26.41;100.00;152683.00;5093532;28;20650;-61
2022/08/19 04:28:55;;;;;;;11.80;10.77;;;;;;;26.59;100.00;152727.75;5093037;28;20190;-61
2022/08/19 04:31:27;;;;;;;11.35;9.40;;;;;;;26.78;100.00;152776.31;5093305;28;20665;-60
2022/08/19 04:33:56;;;;;;;10.90;9.93;;;;;;;27.01;100.00;152833.94;5093004;28;20189;-61
2022/08/19 04:36:25;;;;;;;9.65;9.15;;;;;;;27.18;100.00;152877.44;5093185;28;20271;-60
2022/08/19 04:38:55;;;;;;;9.48;8.80;;;;;;;27.46;100.00;152947.78;5092896;28;20184;-60
2022/08/19 04:44:06;;;;;;;10.00;9.05;;;;;;;27.89;100.00;153057.88;5092868;28;20722;-60
2022/08/19 04:46:35;;;;;;;8.95;8.45;;;;;;;28.10;100.00;153110.41;5092790;28;20276;-61
2022/08/19 04:49:05;;;;;;;9.27;8.60;;;;;;;28.30;100.00;153161.66;5092679;28;20185;-61
2022/08/19 04:51:33;;;;;;;10.48;9.50;;;;;;;28.40;100.00;153187.22;5092655;28;20204;-60
2022/08/19 04:54:00;;;;;;;9.38;8.60;;;;;;;28.37;100.00;153178.25;5093021;28;20206;-60
2022/08/19 04:56:28;;;;;;;11.45;8.55;;;;;;;28.39;100.00;153184.66;5092590;28;20187;-60
2022/08/19 04:58:57;;;;;;;9.13;8.45;;;;;;;28.65;100.00;153248.66;5092513;28;20203;-60
2022/08/19 05:01:29;;;;;;;9.55;8.73;;;;;;;28.84;100.00;153297.38;5092734;28;20654;-61
2022/08/19 05:03:59;;;;;;;8.73;8.23;;;;;;;28.97;100.00;153331.97;5092413;28;20184;-60
2022/08/19 05:06:26;;;;;;;9.23;8.73;;;;;;;29.10;100.00;153364.00;5092286;28;20176;-61
2022/08/19 05:08:54;;;;;;;9.35;8.25;;;;;;;29.23;100.00;153397.28;5092223;28;20195;-61
2022/08/19 05:11:28;;;;;;;8.48;7.90;;;;;;;29.24;100.00;153399.81;5092460;28;20208;-60
2022/08/19 05:13:55;;;;;;;8.45;7.68;;;;;;;29.43;100.00;153448.56;5091929;28;20219;-60
2022/08/19 05:16:24;;;;;;;8.15;7.75;;;;;;;30.14;100.00;153628.00;5092097;28;20194;-61
2022/08/19 05:24:23;;;;;;;9.52;8.60;;;;;;;31.24;100.00;153907.56;5092121;28;20265;-60
2022/08/19 05:26:52;;;;;;;8.07;7.57;;;;;;;31.67;100.00;154016.63;5092306;28;20271;-61
2022/08/19 05:29:21;;;;;;;8.15;7.40;;;;;;;31.66;100.00;154014.06;5091603;28;20196;-60
2022/08/19 05:31:50;;;;;;;8.20;7.78;;;;;;;32.04;100.00;154109.03;5091725;28;20223;-61
2022/08/19 05:34:17;;;;;;;8.00;7.50;;;;;;;32.69;100.00;154274.63;5092025;28;20508;-60
2022/08/19 05:36:46;;;;;;;8.43;7.80;;;;;;;33.55;99.84;154491.63;5091858;28;20183;-61
2022/08/19 05:39:16;;;;;;;8.65;7.97;;;;;;;34.56;90.17;154748.63;5092083;28;20527;-61
2022/08/19 05:41:44;;;;;;;8.55;7.85;;;;;;;35.27;85.24;154931.19;5091770;28;20237;-62
2022/08/19 05:44:11;;;;;;;8.18;7.65;;;;;;;35.62;80.03;155019.91;5091680;28;20188;-61
2022/08/19 05:46:39;;;;;;;8.25;7.85;;;;;;;36.27;74.70;155184.59;5091501;28;20180;-61
2022/08/19 05:49:06;;;;;;;8.55;7.78;;;;;;;36.11;75.50;155143.44;5091628;28;20274;-61
2022/08/19 05:51:35;;;;;;;8.18;7.72;;;;;;;36.49;72.41;155241.19;5092026;28;20200;-61
2022/08/19 05:54:05;;;;;;;12.27;8.60;;;;;;;36.58;71.98;155264.34;5092178;28;20633;-61
2022/08/19 05:56:38;;;;;;;8.85;7.95;;;;;;;36.39;73.31;155215.44;5091381;28;20252;-59
2022/08/19 05:59:11;;;;;;;8.35;7.78;;;;;;;35.81;77.31;155067.53;5091464;28;20377;-58
2022/08/19 06:01:39;;;;;;;8.85;8.43;;;;;;;35.29;81.29;154935.06;5074165;28;20565;-62
2022/08/19 06:04:07;;;;;;;8.90;8.40;;;;;;;36.03;77.21;155122.81;5091168;28;20720;-60
2022/08/19 06:06:34;;;;;;;12.88;12.00;;;;;;;37.01;70.57;155373.69;5091328;28;20266;-58
2022/08/19 06:09:03;;;;;;;11.35;10.32;;;;;;;37.69;67.02;155544.91;5091484;28;20239;-61
2022/08/19 06:11:35;;;;;;;15.45;14.40;;;;;;;38.43;61.02;155732.97;5091351;28;20200;-58
2022/08/19 06:14:05;;;;;;;8.02;7.35;;;;;;;38.48;59.57;155745.84;5091194;28;20311;-61
2022/08/19 06:16:34;;;;;;;7.65;7.15;;;;;;;38.72;57.92;155807.63;5073688;28;20185;-61
2022/08/19 06:19:06;;;;;;;8.13;7.60;;;;;;;38.62;57.96;155783.16;5091119;28;20188;-60
2022/08/19 06:21:34;;;;;;;8.25;7.75;;;;;;;38.13;60.15;155656.97;5091436;28;20650;-62
2022/08/19 06:24:03;;;;;;;8.80;8.40;;;;;;;37.74;62.99;155557.78;5091529;28;20658;-61
2022/08/19 06:26:30;;;;;;;8.93;8.20;;;;;;;36.76;68.39;155308.06;5091467;28;20184;-62
2022/08/19 06:28:57;;;;;;;7.95;7.40;;;;;;;35.97;74.61;155107.38;5091287;28;20180;-62
2022/08/19 06:31:27;;;;;;;7.63;7.13;;;;;;;36.13;73.91;155149.84;5091392;28;20670;-61
2022/08/19 06:33:54;;;;;;;8.40;7.88;;;;;;;36.97;68.20;155362.09;5091390;28;20239;-60
2022/08/19 06:36:31;;;;;;;8.50;8.00;;;;;;;36.43;71.84;155225.72;5073358;28;20180;-61
2022/08/19 06:38:58;;;;;;;7.68;6.93;;;;;;;35.38;78.31;154958.22;5091305;28;20276;-60
2022/08/19 06:41:28;;;;;;;8.60;7.72;;;;;;;35.00;81.75;154860.47;5091873;28;20180;-61
2022/08/19 06:43:56;;;;;;;8.18;7.68;;;;;;;34.48;86.89;154729.34;5095208;28;20191;-61
2022/08/19 06:46:24;;;;;;;8.18;7.75;;;;;;;34.26;88.70;154672.81;5095554;28;20545;-61
2022/08/19 06:48:53;;;;;;;8.30;7.57;;;;;;;33.85;93.13;154570.03;5095520;28;20202;-61
2022/08/19 06:51:20;;;;;;;9.65;7.75;;;;;;;33.56;93.54;154495.50;5095187;28;20235;-62
2022/08/19 06:53:48;;;;;;;8.30;7.68;;;;;;;33.68;94.77;154525.09;5094897;28;20189;-62
2022/08/19 06:56:15;;;;;;;7.63;7.18;;;;;;;34.00;94.71;154605.97;5094756;28;20279;-59
2022/08/19 06:58:44;;;;;;;8.95;8.30;;;;;;;34.07;93.19;154623.97;5094853;28;20188;-60
2022/08/19 07:01:11;;;;;;;8.48;8.07;;;;;;;34.31;91.17;154686.97;5095146;28;20645;-61
2022/08/19 07:03:39;;;;;;;8.27;7.72;;;;;;;34.57;91.60;154751.19;5094738;28;20212;-60
2022/08/19 07:06:09;;;;;;;8.35;7.65;;;;;;;34.48;87.88;154729.34;5095028;28;20218;-60
2022/08/19 07:08:40;;;;;;;8.13;7.55;;;;;;;34.22;90.36;154662.53;5095114;28;20184;-60
2022/08/19 07:11:09;;;;;;;8.45;7.65;;;;;;;34.52;88.71;154739.63;5094376;28;20204;-60
2022/08/19 07:13:37;;;;;;;8.10;7.60;;;;;;;34.78;86.75;154805.22;5094640;28;20264;-60
2022/08/19 07:16:08;;;;;;;7.70;7.07;;;;;;;34.82;87.47;154815.50;5094433;28;20188;-60
2022/08/19 07:18:35;;;;;;;8.55;7.68;;;;;;;34.86;84.34;154825.78;5094445;28;20188;-60
2022/08/19 07:21:07;;;;;;;7.20;6.90;;;;;;;34.74;84.59;154796.22;5094714;28;20196;-60
2022/08/19 07:23:35;;;;;;;7.95;7.30;;;;;;;34.87;87.64;154827.06;5094601;28;20491;-61
2022/08/19 07:26:06;;;;;;;8.43;7.85;;;;;;;34.96;85.17;154851.50;5094533;28;20188;-60
2022/08/19 07:28:33;;;;;;;7.55;6.85;;;;;;;35.23;83.97;154919.63;5094219;28;20192;-61
2022/08/19 07:31:01;;;;;;;7.80;7.15;;;;;;;35.19;81.37;154909.34;5094135;28;20208;-61
2022/08/19 07:33:32;;;;;;;8.18;7.38;;;;;;;35.03;83.50;154868.16;5094376;28;20196;-61
2022/08/19 07:35:59;;;;;;;8.02;7.30;;;;;;;35.26;84.18;154927.38;5094091;28;20187;-61
2022/08/19 07:38:26;;;;;;;9.30;8.13;;;;;;;35.37;82.81;154955.63;5094094;28;20180;-61
2022/08/19 07:40:54;;;;;;;8.13;7.38;;;;;;;35.25;80.91;154924.78;5094255;28;20589;-61
2022/08/19 07:43:24;;;;;;;8.90;7.07;;;;;;;35.26;80.63;154927.38;5093980;28;20203;-61
2022/08/19 07:45:52;;;;;;;7.45;7.05;;;;;;;35.31;82.02;154940.19;5094235;28;20628;-61
2022/08/19 07:48:19;;;;;;;7.82;7.20;;;;;;;35.39;80.55;154960.78;5093829;28;20184;-61
2022/08/19 07:50:48;;;;;;;6.72;6.28;;;;;;;35.38;78.37;154958.22;5093709;28;20210;-61
2022/08/19 07:53:15;;;;;;;11.00;7.18;;;;;;;35.45;78.08;154976.19;5093767;28;20673;-61
2022/08/19 07:55:42;;;;;;;8.43;7.55;;;;;;;35.07;78.05;154879.75;5093824;28;20267;-61
2022/08/19 07:58:09;;;;;;;8.27;7.47;;;;;;;35.25;79.34;154924.78;5093786;28;20518;-61
2022/08/19 08:00:36;;;;;;;8.07;7.05;;;;;;;35.23;80.32;154920.91;5093931;28;20206;-61
2022/08/19 08:03:03;;;;;;;8.63;7.78;;;;;;;35.26;76.77;154928.59;5094198;28;20184;-62
2022/08/19 08:11:00;;;;;;;9.38;6.80;;;;;;;35.48;72.48;154983.88;5093541;28;20237;-60
2022/08/19 08:13:27;;;;;;;7.40;6.70;;;;;;;35.83;71.92;155072.66;5093175;28;20558;-61
2022/08/19 08:15:54;;;;;;;7.55;7.00;;;;;;;35.86;70.78;155079.09;5093555;28;20223;-61
2022/08/19 08:18:21;;;;;;;8.00;7.25;;;;;;;35.40;71.69;154963.31;5093523;28;20526;-60
2022/08/19 08:20:48;;;;;;;7.80;7.07;;;;;;;35.19;73.46;154910.63;5075402;28;20599;-62
2022/08/19 08:23:25;;;;;;;10.57;7.00;;;;;;;35.52;70.32;154994.16;5093124;28;20184;-60
2022/08/19 08:25:54;;;;;;;6.88;6.57;;;;;;;35.87;69.75;155081.63;5093382;28;20195;-61
2022/08/19 08:28:21;;;;;;;6.68;6.07;;;;;;;35.93;69.71;155097.09;5093285;28;20635;-62
2022/08/19 08:30:49;;;;;;;11.77;6.68;;;;;;;36.17;64.27;155160.13;5092966;28;20204;-62
2022/08/19 08:33:23;;;;;;;7.50;6.90;;;;;;;36.13;66.08;155148.56;5093136;28;20184;-61
2022/08/19 08:35:50;;;;;;;7.47;6.85;;;;;;;35.73;67.56;155048.22;5093251;28;20504;-60
2022/08/19 08:38:18;;;;;;;12.75;6.88;;;;;;;35.49;68.73;154986.47;5092866;28;20210;-60
2022/08/19 08:40:50;;;;;;;12.23;7.10;;;;;;;35.60;69.02;155014.78;5093030;28;20480;-60
2022/08/19 08:43:25;;;;;;;8.77;6.93;;;;;;;35.78;69.00;155059.78;5093097;28;20207;-60
2022/08/19 08:45:57;;;;;;;7.07;6.45;;;;;;;35.92;66.04;155094.50;5092727;28;20233;-62
2022/08/19 08:48:33;;;;;;;9.82;6.50;;;;;;;36.03;65.56;155124.06;5092839;28;20180;-61
2022/08/19 08:51:02;;;;;;;8.50;6.22;;;;;;;36.46;66.62;155232.13;5093502;28;20650;-61
2022/08/19 08:53:32;;;;;;;6.57;6.07;;;;;;;36.60;66.32;155269.50;5092926;28;20631;-61
2022/08/19 08:56:03;;;;;;;8.93;7.10;;;;;;;36.52;63.17;155247.59;5092823;28;20184;-62
2022/08/19 08:58:45;;;;;;;6.55;6.15;;;;;;;36.24;63.66;155176.88;5092507;28;20180;-61
2022/08/19 09:01:13;;;;;;;10.77;6.30;;;;;;;36.18;64.11;155161.44;5092357;28;20188;-62
2022/08/19 09:03:44;;;;;;;7.53;5.97;;;;;;;36.10;60.64;155140.81;5092286;28;20554;-61
2022/08/19 09:06:19;;;;;;;6.78;6.10;;;;;;;36.06;64.04;155131.81;5092129;28;20184;-61
2022/08/19 09:08:54;;;;;;;8.05;6.60;;;;;;;36.43;63.70;155225.72;5092488;28;20184;-62
2022/08/19 09:11:40;;;;;;;6.70;6.40;;;;;;;36.07;61.86;155134.34;5074487;28;20665;-62
2022/08/19 09:14:15;;;;;;;7.05;5.97;;;;;;;36.27;63.76;155184.59;5092042;28;20272;-61
2022/08/19 09:16:42;;;;;;;7.68;7.03;;;;;;;35.98;65.63;155109.97;5092647;28;20199;-61
2022/08/19 09:19:10;;;;;;;9.60;6.57;;;;;;;36.00;63.53;155115.06;5074386;28;20192;-61
2022/08/19 09:21:38;;;;;;;14.77;6.47;;;;;;;35.94;62.63;155100.97;5095369;28;20274;-61
2022/08/19 09:24:06;;;;;;;7.10;6.50;;;;;;;36.13;62.74;155148.56;5091982;28;20176;-61
2022/08/19 09:26:34;;;;;;;13.93;6.35;;;;;;;36.10;63.14;155140.81;5091995;28;20235;-61
2022/08/19 09:29:04;;;;;;;6.70;6.30;;;;;;;36.12;61.20;155145.97;5092363;28;20659;-61
2022/08/19 09:31:36;;;;;;;7.32;6.65;;;;;;;35.64;64.57;155025.09;5074281;28;20306;-60
2022/08/19 09:34:08;;;;;;;6.15;5.75;;;;;;;35.56;63.41;155004.44;5078583;28;20204;-60
2022/08/19 09:36:35;;;;;;;6.50;6.00;;;;;;;35.82;58.03;155070.06;5092631;28;20260;-61
2022/08/19 09:39:04;;;;;;;6.30;5.72;;;;;;;36.25;56.11;155179.41;5091832;28;20184;-62
2022/08/19 09:41:33;;;;;;;6.05;5.60;;;;;;;36.61;58.15;155270.81;5092179;28;20597;-61
2022/08/19 09:44:00;;;;;;;5.88;5.68;;;;;;;37.00;56.12;155369.84;5091860;28;20187;-61
2022/08/19 09:46:30;;;;;;;6.28;5.95;;;;;;;35.82;59.21;155068.81;5091853;28;20184;-60
2022/08/19 09:48:59;;;;;;;7.47;6.13;;;;;;;35.66;59.26;155028.94;5091959;28;20549;-60
2022/08/19 09:51:28;;;;;;;11.23;6.75;;;;;;;35.22;60.13;154917.09;5091707;28;20208;-61
2022/08/19 09:53:57;;;;;;;8.15;6.13;;;;;;;35.73;61.43;155046.97;5091808;28;20188;-62
2022/08/19 09:56:24;;;;;;;11.18;6.45;;;;;;;35.43;65.39;154969.78;5091880;28;20605;-61
2022/08/19 09:58:52;;;;;;;7.07;6.47;;;;;;;35.33;59.98;154944.06;5091843;28;20184;-60
2022/08/19 10:01:21;;;;;;;10.63;6.68;;;;;;;35.62;58.26;155018.59;5091484;28;20216;-61
2022/08/19 10:03:50;;;;;;;6.35;5.97;;;;;;;36.14;58.20;155151.16;5091542;28;20226;-62
2022/08/19 10:06:18;;;;;;;8.05;6.60;;;;;;;36.30;58.91;155192.28;5091457;28;20252;-61
2022/08/19 10:08:45;;;;;;;7.07;6.63;;;;;;;36.24;59.26;155176.88;5091692;28;20210;-61
2022/08/19 10:11:15;;;;;;;6.70;6.28;;;;;;;36.25;57.44;155179.41;5091277;28;20200;-61
2022/08/19 10:13:44;;;;;;;6.65;6.25;;;;;;;36.25;56.88;155179.41;5091340;28;20238;-61
2022/08/19 10:16:15;;;;;;;6.13;5.80;;;;;;;36.57;54.44;155261.75;5093842;28;20192;-62
2022/08/19 10:18:43;;;;;;;6.90;6.15;;;;;;;36.92;54.61;155350.53;5095459;28;20279;-61
2022/08/19 10:21:14;;;;;;;6.45;6.13;;;;;;;37.10;53.97;155395.63;5095966;28;20589;-62
2022/08/19 10:23:45;;;;;;;7.32;6.32;;;;;;;37.25;53.85;155432.94;5095817;28;20547;-61
2022/08/19 10:26:14;;;;;;;8.52;7.28;;;;;;;35.63;58.79;155021.19;5095786;28;20248;-61
2022/08/19 10:28:41;;;;;;;7.00;6.40;;;;;;;35.97;60.38;155107.38;5095341;28;20669;-62
2022/08/19 10:31:10;;;;;;;8.93;6.57;;;;;;;35.88;56.79;155085.53;5095302;28;20184;-61
2022/08/19 10:33:39;;;;;;;7.25;6.70;;;;;;;35.61;58.99;155016.03;5095555;28;20568;-61
2022/08/19 10:36:09;;;;;;;6.85;5.82;;;;;;;36.09;55.73;155138.22;5095456;28;20188;-62
2022/08/19 10:38:36;;;;;;;13.13;5.97;;;;;;;36.54;55.62;155254.00;5095543;28;20180;-61
2022/08/19 10:41:11;;;;;;;10.52;6.60;;;;;;;36.93;53.46;155353.09;5104780;28;20210;-61
2022/08/19 10:43:39;;;;;;;6.20;5.95;;;;;;;36.79;54.64;155315.81;5115538;28;20183;-61
2022/08/19 10:46:07;;;;;;;7.20;6.28;;;;;;;36.65;53.54;155281.09;5098052;28;20274;-60
2022/08/19 10:48:34;;;;;;;6.55;6.25;;;;;;;36.27;54.56;155183.28;5115368;28;20187;-60
2022/08/19 10:53:47;;;;;;;6.45;6.15;;;;;;;34.99;58.44;154857.91;5115807;28;20182;-61
2022/08/19 10:58:59;;;;;;;7.90;6.97;;;;;;;35.17;63.01;154904.22;5115425;28;20174;-60
2022/08/19 11:01:26;;;;;;;7.05;6.65;;;;;;;35.23;60.81;154919.63;5097962;28;20219;-61
2022/08/19 11:03:53;;;;;;;12.60;6.75;;;;;;;35.32;61.14;154941.47;5115784;28;20649;-61
2022/08/19 11:06:24;;;;;;;7.95;6.80;;;;;;;35.46;61.75;154978.78;5115535;28;20192;-60
2022/08/19 11:08:51;;;;;;;7.07;6.53;;;;;;;35.04;63.30;154870.75;5115229;28;20184;-60
2022/08/19 11:11:18;;;;;;;7.28;6.57;;;;;;;35.03;62.04;154869.47;5115345;28;20191;-60
2022/08/19 11:13:46;;;;;;;10.07;6.57;;;;;;;34.51;62.28;154737.06;5096965;28;20234;-60
2022/08/19 11:16:15;;;;;;;9.00;6.30;;;;;;;34.38;62.64;154703.63;5115496;28;20241;-60
2022/08/19 11:18:46;;;;;;;7.05;6.43;;;;;;;34.53;58.74;154742.22;5115136;28;20185;-60
2022/08/19 11:21:16;;;;;;;8.82;6.00;;;;;;;34.78;60.33;154805.22;5115529;28;20349;-61
2022/08/19 11:23:45;;;;;;;6.63;6.07;;;;;;;34.63;60.09;154766.63;5115268;28;20195;-61
2022/08/19 11:26:12;;;;;;;6.60;6.10;;;;;;;34.72;60.75;154791.06;5115009;28;20237;-61
2022/08/19 11:28:40;;;;;;;8.90;6.60;;;;;;;34.66;77.68;154775.66;5114261;28;20191;-61
2022/08/19 11:31:11;;;;;;;7.65;7.35;;;;;;;34.20;100.00;154658.72;5114900;28;20187;-61
2022/08/19 11:33:38;;;;;;;9.18;8.15;;;;;;;33.68;100.00;154526.38;5114792;28;20208;-61
2022/08/19 11:36:05;;;;;;;8.27;7.72;;;;;;;32.73;100.00;154283.59;5115131;28;20549;-61
2022/08/19 11:38:32;;;;;;;9.50;8.45;;;;;;;32.12;100.00;154130.84;5114769;28;20190;-61
2022/08/19 11:41:02;;;;;;;9.50;8.65;;;;;;;31.74;100.00;154034.56;5115327;28;20640;-61
2022/08/19 11:43:30;;;;;;;10.70;9.27;;;;;;;31.50;100.00;153971.69;5114592;28;20183;-61